Time;durP1;ratioP1;P1;durP2;ratioP2;P2;SDS_P1;SDS_P2;PMS_P1;PMS_P2;Temp;Humidity;BMP_temperature;BMP_pressure;BME280_temperature;BME280_humidity;BME280_pressure;Samples;Min_cycle;Max_cycle;Signal;HPM_P1;HPM_P2
2023/01/24 00:01:34;;;;;;;19.13;14.47;;;3.20;99.90;;;;;;2615205;54;20398;-76
2023/01/24 00:07:22;;;;;;;16.53;13.33;;;3.30;99.90;;;;;;2615940;54;20157;-75
2023/01/24 00:13:12;;;;;;;21.10;15.33;;;3.30;99.90;;;;;;2615771;54;20219;-77
2023/01/24 00:19:00;;;;;;;14.10;11.90;;;3.20;99.90;;;;;;2617339;39;21016;-76
2023/01/24 00:24:48;;;;;;;16.90;14.27;;;3.30;99.90;;;;;;2616564;54;20130;-76
2023/01/24 00:30:36;;;;;;;16.17;13.97;;;3.20;99.90;;;;;;2616193;54;20161;-76
2023/01/24 00:40:29;;;;;;;15.93;13.00;;;3.20;99.90;;;;;;2615573;54;20418;-76
2023/01/24 00:46:16;;;;;;;16.10;12.53;;;3.20;99.90;;;;;;2615783;54;20908;-76
2023/01/24 00:52:04;;;;;;;14.17;12.40;;;3.30;99.90;;;;;;2616242;54;20142;-75
2023/01/24 00:57:52;;;;;;;17.00;13.60;;;3.20;99.90;;;;;;2616208;46;20594;-75
2023/01/24 01:03:42;;;;;;;13.30;11.90;;;3.20;99.90;;;;;;2615163;54;20126;-76
2023/01/24 01:09:30;;;;;;;14.13;11.97;;;3.20;99.90;;;;;;2615914;54;20391;-76
2023/01/24 01:15:18;;;;;;;17.40;13.07;;;3.20;99.90;;;;;;2614318;54;20214;-76
2023/01/24 01:21:06;;;;;;;14.37;12.87;;;3.20;99.90;;;;;;2615809;46;20163;-76
2023/01/24 01:26:53;;;;;;;14.60;13.10;;;3.20;99.90;;;;;;2616783;31;20632;-76
2023/01/24 01:32:40;;;;;;;15.00;12.10;;;3.20;99.90;;;;;;2613819;54;20134;-76
2023/01/24 01:35:57;;;;;;;13.97;12.47;;;3.20;99.90;;;;;;2613565;47;20941;-76
2023/01/24 01:38:24;;;;;;;16.27;12.70;;;3.20;99.90;;;;;;2615318;54;20178;-76
2023/01/24 01:56:58;;;;;;;13.57;11.70;;;3.20;99.90;;;;;;2615524;54;20499;-77
2023/01/24 02:02:52;;;;;;;12.97;11.67;;;3.20;99.90;;;;;;2614905;54;20386;-76
2023/01/24 02:08:42;;;;;;;13.40;11.50;;;3.10;99.90;;;;;;2615673;54;20382;-76
2023/01/24 02:20:44;;;;;;;13.53;11.90;;;3.10;99.90;;;;;;2614521;54;20402;-76
2023/01/24 02:26:31;;;;;;;12.87;11.13;;;3.20;99.90;;;;;;2615687;39;20766;-76
2023/01/24 02:32:20;;;;;;;12.60;11.00;;;3.20;99.90;;;;;;2613409;54;20145;-76
2023/01/24 03:03:08;;;;;;;14.40;11.40;;;3.10;99.90;;;;;;2613233;54;20410;-77
2023/01/24 03:08:55;;;;;;;12.03;10.80;;;3.10;99.90;;;;;;2614781;54;20399;-76
2023/01/24 03:36:01;;;;;;;12.27;10.97;;;3.00;99.90;;;;;;2615151;39;20823;-77
2023/01/24 03:44:33;;;;;;;11.33;10.27;;;3.10;99.90;;;;;;2615004;54;20411;-76
2023/01/24 03:56:44;;;;;;;12.17;10.97;;;3.00;99.90;;;;;;2613596;54;20402;-78
2023/01/24 04:02:33;;;;;;;11.27;10.27;;;3.00;99.90;;;;;;2614494;47;21524;-76
2023/01/24 04:08:21;;;;;;;12.53;10.77;;;3.00;99.90;;;;;;2615507;39;20779;-76
2023/01/24 04:14:08;;;;;;;10.77;9.23;;;3.00;99.90;;;;;;2615779;39;21030;-77
2023/01/24 04:19:56;;;;;;;12.63;11.00;;;3.00;99.90;;;;;;2615147;54;20130;-77
2023/01/24 04:25:54;;;;;;;13.10;10.63;;;2.90;99.90;;;;;;2615166;54;20167;-76
2023/01/24 04:31:42;;;;;;;18.10;13.00;;;2.90;99.90;;;;;;2613727;54;21055;-77
2023/01/24 04:41:00;;;;;;;12.27;11.07;;;2.90;99.90;;;;;;2614184;54;20435;-77
2023/01/24 04:46:48;;;;;;;13.10;11.57;;;2.90;99.90;;;;;;2613912;54;20387;-76
2023/01/24 04:52:36;;;;;;;13.00;11.67;;;2.90;99.90;;;;;;2614360;54;20138;-76
2023/01/24 04:58:24;;;;;;;15.30;12.50;;;2.90;99.90;;;;;;2614616;54;20181;-76
2023/01/24 05:04:11;;;;;;;14.17;12.37;;;2.80;99.90;;;;;;2615171;54;20146;-76
2023/01/24 05:09:59;;;;;;;13.73;12.33;;;2.80;99.90;;;;;;2615702;54;20146;-76
2023/01/24 05:15:51;;;;;;;15.60;12.10;;;2.80;99.90;;;;;;2613124;54;20154;-76
2023/01/24 05:21:39;;;;;;;18.03;13.03;;;2.80;99.90;;;;;;2614604;39;20862;-76
2023/01/24 05:27:27;;;;;;;14.70;12.17;;;2.80;99.90;;;;;;2615633;54;20134;-76
2023/01/24 05:33:14;;;;;;;14.67;12.60;;;2.80;99.90;;;;;;2613466;54;20633;-76
2023/01/24 05:42:24;;;;;;;15.70;13.70;;;2.80;99.90;;;;;;2615105;54;20415;-76
2023/01/24 05:48:12;;;;;;;15.23;13.17;;;2.80;99.90;;;;;;2615626;54;20147;-77
2023/01/24 05:54:00;;;;;;;18.90;13.20;;;2.80;99.90;;;;;;2614318;54;20178;-76
2023/01/24 05:59:48;;;;;;;17.07;13.00;;;2.80;99.90;;;;;;2615371;54;20130;-76
2023/01/24 06:05:35;;;;;;;14.07;12.07;;;2.80;99.90;;;;;;2615127;54;20122;-75
2023/01/24 06:11:25;;;;;;;15.43;12.20;;;2.80;99.90;;;;;;2616045;39;20558;-75
2023/01/24 06:17:13;;;;;;;14.13;12.77;;;2.80;99.90;;;;;;2615593;54;20450;-76
2023/01/24 06:23:06;;;;;;;13.70;12.37;;;2.80;99.90;;;;;;2612674;54;20134;-77
2023/01/24 06:28:54;;;;;;;14.73;13.00;;;2.80;99.90;;;;;;2613067;54;20382;-76
2023/01/24 06:41:16;;;;;;;14.37;12.33;;;2.70;99.90;;;;;;2616417;39;20875;-76
2023/01/24 06:47:04;;;;;;;14.47;12.87;;;2.80;99.90;;;;;;2615739;54;20399;-76
2023/01/24 06:52:53;;;;;;;15.57;12.47;;;2.70;99.90;;;;;;2615758;54;20163;-76
2023/01/24 06:58:43;;;;;;;14.17;12.53;;;2.70;99.90;;;;;;2615512;54;20399;-76
2023/01/24 07:04:31;;;;;;;20.60;13.10;;;2.80;99.90;;;;;;2614851;54;20399;-75
2023/01/24 07:10:19;;;;;;;15.20;12.90;;;2.80;99.90;;;;;;2613115;54;20130;-77
2023/01/24 07:16:07;;;;;;;13.87;12.30;;;2.80;99.90;;;;;;2611864;54;20403;-76
2023/01/24 07:21:56;;;;;;;15.60;12.27;;;2.80;99.90;;;;;;2612046;54;20133;-75
2023/01/24 07:27:44;;;;;;;13.43;12.07;;;2.80;99.90;;;;;;2612904;54;20463;-77
2023/01/24 07:33:32;;;;;;;13.10;11.67;;;2.80;99.90;;;;;;2613573;54;20961;-76
2023/01/24 07:46:04;;;;;;;13.07;11.00;;;2.80;99.90;;;;;;2612734;54;20410;-76
2023/01/24 07:51:52;;;;;;;12.10;10.90;;;2.80;99.90;;;;;;2614967;54;20941;-75
2023/01/24 07:57:40;;;;;;;12.10;11.00;;;2.80;99.90;;;;;;2613662;54;20166;-76
2023/01/24 08:03:28;;;;;;;11.47;10.37;;;2.80;99.90;;;;;;2613864;54;20294;-76
2023/01/24 08:09:15;;;;;;;12.20;11.00;;;2.80;99.90;;;;;;2613032;47;20154;-76
2023/01/24 08:15:04;;;;;;;12.53;10.50;;;2.80;99.90;;;;;;2614880;39;20561;-76
2023/01/24 08:20:55;;;;;;;13.70;11.63;;;2.90;99.90;;;;;;2613380;54;20395;-76
2023/01/24 08:26:46;;;;;;;11.77;10.57;;;2.90;99.90;;;;;;2614535;54;21036;-76
2023/01/24 08:32:33;;;;;;;12.27;11.27;;;2.90;99.90;;;;;;2612565;54;20378;-76
2023/01/24 08:34:59;;;;;;;12.70;11.43;;;2.90;99.90;;;;;;2613916;39;20843;-76
2023/01/24 08:37:25;;;;;;;11.77;10.57;;;2.90;99.90;;;;;;2614024;47;20776;-76
2023/01/24 08:43:12;;;;;;;12.50;11.20;;;3.00;99.90;;;;;;2615040;39;20605;-75
2023/01/24 08:49:02;;;;;;;14.33;13.10;;;3.00;99.90;;;;;;2614760;54;20183;-75
2023/01/24 08:54:49;;;;;;;13.83;12.53;;;3.20;99.90;;;;;;2614678;54;20394;-76
2023/01/24 09:00:37;;;;;;;12.60;11.50;;;3.10;99.90;;;;;;2615020;54;21307;-76
2023/01/24 09:06:26;;;;;;;12.63;11.10;;;3.20;99.90;;;;;;2614747;54;20157;-76
2023/01/24 09:12:13;;;;;;;13.67;12.23;;;3.20;99.90;;;;;;2614043;39;20870;-76
2023/01/24 09:18:02;;;;;;;13.77;12.37;;;3.20;99.90;;;;;;2615268;54;20135;-78
2023/01/24 09:20:55;;;;;;;14.27;12.90;;;3.20;99.90;;;;;;2614316;54;20395;-77
2023/01/24 09:23:20;;;;;;;13.20;12.00;;;3.10;99.90;;;;;;2612705;47;20419;-77
2023/01/24 09:26:24;;;;;;;14.13;12.73;;;3.20;99.90;;;;;;2615119;54;21062;-76
2023/01/24 09:28:49;;;;;;;15.27;13.77;;;3.20;99.90;;;;;;2613491;54;20704;-76
2023/01/24 09:34:40;;;;;;;13.00;11.70;;;3.20;99.90;;;;;;2615503;54;20238;-77
2023/01/24 09:43:53;;;;;;;13.77;12.40;;;3.20;99.90;;;;;;2615384;54;20410;-77
2023/01/24 09:55:59;;;;;;;13.33;12.13;;;3.50;99.90;;;;;;2615364;47;20397;-77
2023/01/24 10:01:48;;;;;;;14.40;13.00;;;3.70;99.90;;;;;;2612533;54;20976;-77
2023/01/24 10:14:26;;;;;;;12.97;11.90;;;3.10;99.90;;;;;;2614112;54;20925;-76
2023/01/24 10:20:44;;;;;;;15.57;13.93;;;3.40;99.90;;;;;;2613773;54;20382;-76
2023/01/24 10:26:38;;;;;;;14.00;12.70;;;3.30;99.90;;;;;;2613753;54;20449;-76
2023/01/24 10:39:11;;;;;;;14.07;12.87;;;3.70;99.90;;;;;;2611836;54;20419;-77
2023/01/24 10:55:48;;;;;;;15.20;13.83;;;3.60;99.90;;;;;;2613277;54;20384;-76
2023/01/24 11:01:43;;;;;;;14.63;13.33;;;3.70;99.90;;;;;;2613253;54;20404;-77
2023/01/24 11:13:41;;;;;;;15.90;14.40;;;3.80;99.90;;;;;;2612525;54;20409;-76
2023/01/24 11:19:40;;;;;;;16.30;14.80;;;3.90;99.90;;;;;;2614542;54;20146;-75
2023/01/24 11:25:27;;;;;;;16.77;15.40;;;3.90;99.90;;;;;;2614153;54;20512;-77
2023/01/24 11:31:32;;;;;;;15.20;13.83;;;3.70;99.90;;;;;;2611207;54;20663;-76
2023/01/24 11:37:41;;;;;;;14.10;13.00;;;3.70;99.90;;;;;;2614437;54;20968;-77
2023/01/24 12:06:47;;;;;;;16.50;14.90;;;3.70;99.90;;;;;;2615468;54;20362;-76
2023/01/24 12:12:35;;;;;;;16.03;14.53;;;3.80;99.90;;;;;;2615712;54;20466;-77
2023/01/24 12:38:34;;;;;;;17.37;15.70;;;3.80;99.90;;;;;;2615110;54;20382;-77
2023/01/24 12:41:53;;;;;;;17.87;16.23;;;3.80;99.90;;;;;;2613911;47;20970;-76
2023/01/24 12:44:28;;;;;;;16.53;15.10;;;3.70;99.90;;;;;;2615770;54;20407;-77
2023/01/24 13:16:29;;;;;;;16.77;14.93;;;3.70;99.90;;;;;;2615896;54;20397;-76
2023/01/24 13:22:25;;;;;;;16.80;15.20;;;3.90;99.90;;;;;;2616037;54;20370;-78
2023/01/24 13:41:18;;;;;;;18.10;15.03;;;3.80;99.90;;;;;;2614817;54;20403;-76
2023/01/24 13:47:08;;;;;;;19.97;17.87;;;3.60;99.90;;;;;;2613183;54;20442;-77
2023/01/24 13:50:27;;;;;;;18.90;17.00;;;3.80;99.90;;;;;;2612144;54;20407;-76
2023/01/24 13:56:15;;;;;;;18.40;16.77;;;3.60;99.90;;;;;;2615637;54;20384;-77
2023/01/24 14:02:02;;;;;;;16.87;15.37;;;3.40;99.90;;;;;;2613313;39;20526;-76
2023/01/24 14:07:50;;;;;;;17.67;16.23;;;3.70;99.90;;;;;;2615499;54;20686;-77
2023/01/24 14:13:47;;;;;;;17.03;15.50;;;3.60;99.90;;;;;;2615822;54;20123;-76
2023/01/24 14:19:37;;;;;;;19.77;17.87;;;3.50;99.90;;;;;;2613760;54;20523;-76
2023/01/24 14:25:37;;;;;;;18.97;17.17;;;3.50;99.90;;;;;;2615615;54;21032;-77
2023/01/24 14:31:26;;;;;;;21.40;18.13;;;3.30;99.90;;;;;;2615894;54;20411;-77
2023/01/24 14:37:18;;;;;;;17.93;16.30;;;3.20;99.90;;;;;;2615370;54;20374;-76
2023/01/24 14:43:06;;;;;;;18.60;16.60;;;3.30;99.90;;;;;;2616339;54;20411;-76
2023/01/24 14:45:57;;;;;;;18.10;16.50;;;3.30;99.90;;;;;;2615783;39;20794;-78
2023/01/24 14:48:24;;;;;;;26.83;17.87;;;3.30;99.90;;;;;;2615697;54;20406;-76
2023/01/24 14:54:21;;;;;;;18.33;16.73;;;3.30;99.90;;;;;;2615051;54;20512;-77
2023/01/24 15:00:11;;;;;;;17.87;16.07;;;3.10;99.90;;;;;;2616041;54;20491;-75
2023/01/24 15:06:05;;;;;;;18.43;16.53;;;3.10;99.90;;;;;;2613742;54;20383;-77
2023/01/24 15:11:54;;;;;;;18.60;16.70;;;3.10;99.90;;;;;;2615318;46;20407;-77
2023/01/24 15:17:45;;;;;;;18.60;16.70;;;3.00;99.90;;;;;;2615389;54;20363;-78
2023/01/24 15:23:34;;;;;;;17.70;16.00;;;3.00;99.90;;;;;;2615572;54;20371;-76
2023/01/24 15:29:38;;;;;;;17.70;16.07;;;3.00;99.90;;;;;;2615004;54;20431;-76
2023/01/24 15:35:26;;;;;;;18.60;16.70;;;2.90;99.90;;;;;;2615678;54;20398;-77
2023/01/24 15:41:20;;;;;;;18.97;17.07;;;2.80;99.90;;;;;;2615972;54;20129;-77
2023/01/24 15:56:38;;;;;;;21.00;16.87;;;2.70;99.90;;;;;;2616029;39;20807;-75
2023/01/24 16:02:26;;;;;;;17.37;15.70;;;2.60;99.90;;;;;;2615428;54;21389;-76
2023/01/24 16:08:14;;;;;;;17.83;16.13;;;2.70;99.90;;;;;;2615401;54;20390;-76
2023/01/24 16:14:03;;;;;;;18.83;16.33;;;2.60;99.90;;;;;;2616006;54;20883;-76
2023/01/24 16:19:51;;;;;;;17.47;15.70;;;2.60;99.90;;;;;;2613152;54;20401;-77
2023/01/24 16:25:40;;;;;;;16.30;14.83;;;2.50;99.90;;;;;;2613284;54;20131;-76
2023/01/24 16:31:27;;;;;;;21.43;18.63;;;2.50;99.90;;;;;;2613982;39;20753;-75
2023/01/24 16:37:18;;;;;;;17.73;15.97;;;2.50;99.90;;;;;;2613157;54;20125;-77
2023/01/24 16:43:06;;;;;;;19.70;16.90;;;2.50;99.90;;;;;;2613217;54;20378;-78
2023/01/24 16:45:58;;;;;;;18.07;16.17;;;2.50;99.90;;;;;;2612892;54;20411;-77
2023/01/24 16:48:23;;;;;;;18.87;16.97;;;2.50;99.90;;;;;;2611838;47;20418;-77
2023/01/24 16:54:13;;;;;;;16.10;14.60;;;2.50;99.90;;;;;;2613211;54;20382;-78
2023/01/24 17:00:01;;;;;;;18.50;16.60;;;2.50;99.90;;;;;;2614250;54;20366;-76
2023/01/24 17:05:49;;;;;;;21.13;15.13;;;2.40;99.90;;;;;;2614533;54;20968;-75
2023/01/24 17:11:36;;;;;;;17.00;15.30;;;2.40;99.90;;;;;;2614891;39;20543;-76
2023/01/24 17:17:25;;;;;;;16.97;15.20;;;2.30;99.90;;;;;;2613499;54;20962;-76
2023/01/24 17:23:13;;;;;;;17.87;16.27;;;2.20;99.90;;;;;;2613535;54;20951;-77
2023/01/24 17:29:01;;;;;;;17.80;16.10;;;2.20;99.90;;;;;;2614035;54;20135;-77
2023/01/24 17:34:49;;;;;;;20.10;18.03;;;2.20;99.90;;;;;;2614078;54;21293;-76
2023/01/24 17:40:37;;;;;;;18.57;16.40;;;2.20;99.90;;;;;;2613332;54;20151;-76
2023/01/24 17:50:31;;;;;;;19.63;17.47;;;2.20;99.90;;;;;;2614777;54;20478;-77
2023/01/24 17:56:19;;;;;;;23.83;18.70;;;2.20;99.90;;;;;;2613469;54;20414;-76
2023/01/24 18:02:09;;;;;;;19.23;17.30;;;2.20;99.90;;;;;;2613232;54;20131;-76
2023/01/24 18:07:56;;;;;;;20.50;17.80;;;2.10;99.90;;;;;;2612590;54;20468;-76
2023/01/24 18:13:44;;;;;;;21.77;18.00;;;2.10;99.90;;;;;;2613447;39;20550;-81
2023/01/24 18:19:32;;;;;;;20.60;17.50;;;2.10;99.90;;;;;;2614768;54;20536;-77
2023/01/24 18:25:20;;;;;;;23.37;20.63;;;2.00;99.90;;;;;;2612900;54;20130;-77
2023/01/24 18:31:09;;;;;;;23.57;19.27;;;2.00;99.90;;;;;;2611666;54;20381;-77
2023/01/24 18:36:57;;;;;;;21.40;19.20;;;2.00;99.90;;;;;;2610905;39;20787;-76
2023/01/24 18:42:44;;;;;;;20.93;18.83;;;1.90;99.90;;;;;;2612128;54;20506;-76
2023/01/24 18:45:59;;;;;;;20.53;18.10;;;1.90;99.90;;;;;;2611683;54;20443;-76
2023/01/24 18:48:25;;;;;;;22.80;19.97;;;1.90;99.90;;;;;;2612809;46;20170;-76
2023/01/24 18:54:11;;;;;;;22.73;19.17;;;1.80;99.90;;;;;;2612921;39;20594;-76
2023/01/24 18:59:58;;;;;;;23.40;19.67;;;1.80;99.90;;;;;;2612481;54;20134;-76
2023/01/24 19:05:46;;;;;;;22.93;19.40;;;1.80;99.90;;;;;;2613529;54;20138;-77
2023/01/24 19:11:37;;;;;;;24.87;20.20;;;1.70;99.90;;;;;;2614417;39;20543;-77
2023/01/24 19:17:25;;;;;;;26.83;20.60;;;1.70;99.90;;;;;;2615329;54;20406;-78
2023/01/24 19:23:12;;;;;;;22.30;20.10;;;1.60;99.90;;;;;;2615828;54;20664;-78
2023/01/24 19:29:01;;;;;;;21.80;19.23;;;1.50;99.90;;;;;;2616186;39;20525;-78
2023/01/24 19:34:49;;;;;;;23.13;19.77;;;1.60;99.90;;;;;;2615900;54;20382;-77
2023/01/24 19:40:37;;;;;;;22.60;19.57;;;1.70;99.90;;;;;;2615699;54;20219;-77
2023/01/24 19:50:31;;;;;;;26.37;22.67;;;1.60;99.90;;;;;;2614761;54;20382;-78
2023/01/24 19:56:19;;;;;;;24.13;21.53;;;1.60;99.90;;;;;;2615714;39;20722;-77
2023/01/24 20:02:08;;;;;;;22.53;19.97;;;1.60;99.90;;;;;;2615241;54;20122;-78
2023/01/24 20:07:57;;;;;;;22.83;20.43;;;1.60;99.90;;;;;;2615569;54;20411;-77
2023/01/24 20:13:45;;;;;;;26.77;23.20;;;1.70;99.90;;;;;;2615680;54;20370;-77
2023/01/24 20:19:33;;;;;;;24.10;21.60;;;1.70;99.90;;;;;;2613989;54;20494;-77
2023/01/24 20:25:21;;;;;;;25.43;22.30;;;1.60;99.90;;;;;;2614649;54;20235;-77
2023/01/24 20:31:10;;;;;;;24.73;22.03;;;1.60;99.90;;;;;;2616619;54;20374;-78
2023/01/24 20:36:58;;;;;;;26.40;21.87;;;1.50;99.90;;;;;;2616786;54;20367;-78
2023/01/24 20:42:49;;;;;;;24.40;20.73;;;1.50;99.90;;;;;;2616668;54;20219;-77
2023/01/24 20:46:01;;;;;;;24.20;21.60;;;1.50;99.90;;;;;;2614102;54;20418;-79
2023/01/24 20:48:27;;;;;;;26.03;21.87;;;1.50;99.90;;;;;;2613714;54;20431;-78
2023/01/24 20:54:15;;;;;;;25.63;22.00;;;1.60;99.90;;;;;;2615683;54;20976;-78
2023/01/24 21:00:04;;;;;;;26.33;22.63;;;1.60;99.90;;;;;;2615643;54;20129;-78
2023/01/24 21:05:52;;;;;;;33.63;24.20;;;1.60;99.90;;;;;;2616146;54;20370;-77
2023/01/24 21:08:57;;;;;;;33.73;25.00;;;1.60;99.90;;;;;;2615203;48;20941;-77
2023/01/24 21:11:25;;;;;;;26.30;23.17;;;1.60;99.90;;;;;;2615907;47;20157;-77
2023/01/24 21:17:15;;;;;;;27.77;24.30;;;1.60;99.90;;;;;;2613838;54;20394;-78
2023/01/24 21:23:03;;;;;;;25.50;22.43;;;1.50;99.90;;;;;;2616293;54;20379;-77
2023/01/24 21:28:51;;;;;;;35.03;22.47;;;1.50;99.90;;;;;;2616381;54;20147;-77
2023/01/24 21:34:39;;;;;;;24.93;22.27;;;1.50;99.90;;;;;;2615894;54;20365;-77
2023/01/24 21:41:53;;;;;;;27.60;21.80;;;1.40;99.90;;;;;;2615976;54;20146;-78
2023/01/24 21:50:31;;;;;;;24.80;19.80;;;1.40;99.90;;;;;;2613148;54;20411;-77
2023/01/24 22:02:28;;;;;;;25.60;22.50;;;1.40;99.90;;;;;;2613292;54;20968;-77
2023/01/24 22:08:16;;;;;;;27.67;23.03;;;1.40;99.90;;;;;;2616268;54;20379;-78
2023/01/24 22:14:04;;;;;;;27.87;23.63;;;1.40;99.90;;;;;;2616083;54;20119;-77
2023/01/24 22:19:54;;;;;;;30.50;24.30;;;1.40;99.90;;;;;;2613846;54;20371;-77
2023/01/24 22:32:20;;;;;;;26.60;23.77;;;1.40;99.90;;;;;;2612222;54;20387;-78
2023/01/24 22:38:08;;;;;;;28.63;21.87;;;1.40;99.90;;;;;;2615079;54;20947;-77
2023/01/24 22:43:55;;;;;;;28.10;23.13;;;1.20;99.90;;;;;;2614810;54;20386;-77
2023/01/24 22:49:43;;;;;;;25.53;22.80;;;1.20;99.90;;;;;;2614345;54;20146;-77
2023/01/24 22:55:31;;;;;;;31.00;24.83;;;1.30;99.90;;;;;;2614229;54;20523;-77
2023/01/24 23:01:18;;;;;;;28.13;22.10;;;1.20;99.90;;;;;;2614611;54;20150;-77
2023/01/24 23:07:05;;;;;;;29.03;22.97;;;1.20;99.90;;;;;;2616192;54;20223;-77
2023/01/24 23:25:09;;;;;;;30.27;23.40;;;1.20;99.90;;;;;;2616058;54;20374;-77
2023/01/24 23:31:07;;;;;;;30.70;23.30;;;1.20;99.90;;;;;;2616292;54;20118;-77
2023/01/24 23:36:55;;;;;;;29.73;24.40;;;1.10;99.90;;;;;;2616452;54;20391;-77
2023/01/24 23:42:43;;;;;;;30.13;23.27;;;1.10;99.90;;;;;;2616226;54;20182;-78
2023/01/24 23:46:01;;;;;;;25.77;20.60;;;1.10;99.90;;;;;;2616216;39;20822;-77
2023/01/24 23:48:27;;;;;;;24.47;21.30;;;1.00;99.90;;;;;;2616614;54;20514;-76
2023/01/24 23:54:15;;;;;;;28.80;22.10;;;1.00;99.90;;;;;;2616238;54;20141;-75
